sensor_id;sensor_type;location;lat;lon;timestamp;temperature;humidity
68378;DHT22;55322;48.146;11.516;2023-07-31T00:01:42;16.14;79.79
68378;DHT22;55322;48.146;11.516;2023-07-31T00:04:07;16.10;79.97
68378;DHT22;55322;48.146;11.516;2023-07-31T00:06:32;16.08;80.12
68378;DHT22;55322;48.146;11.516;2023-07-31T00:08:57;16.03;80.22
68378;DHT22;55322;48.146;11.516;2023-07-31T00:11:23;15.93;79.78
68378;DHT22;55322;48.146;11.516;2023-07-31T00:13:48;15.88;80.71
68378;DHT22;55322;48.146;11.516;2023-07-31T00:16:14;15.81;80.08
68378;DHT22;55322;48.146;11.516;2023-07-31T00:18:39;15.78;81.23
68378;DHT22;55322;48.146;11.516;2023-07-31T00:21:04;15.75;80.52
68378;DHT22;55322;48.146;11.516;2023-07-31T00:23:30;15.70;80.71
68378;DHT22;55322;48.146;11.516;2023-07-31T00:25:55;15.68;81.77
68378;DHT22;55322;48.146;11.516;2023-07-31T00:28:20;15.59;81.41
68378;DHT22;55322;48.146;11.516;2023-07-31T00:30:45;15.58;82.08
68378;DHT22;55322;48.146;11.516;2023-07-31T00:33:11;15.62;82.77
68378;DHT22;55322;48.146;11.516;2023-07-31T00:35:36;15.56;81.91
68378;DHT22;55322;48.146;11.516;2023-07-31T00:38:02;15.56;82.85
68378;DHT22;55322;48.146;11.516;2023-07-31T00:40:27;15.61;82.79
68378;DHT22;55322;48.146;11.516;2023-07-31T00:42:53;15.61;80.18
68378;DHT22;55322;48.146;11.516;2023-07-31T00:45:18;15.65;80.33
68378;DHT22;55322;48.146;11.516;2023-07-31T00:47:43;15.65;81.98
68378;DHT22;55322;48.146;11.516;2023-07-31T00:50:09;15.59;80.54
68378;DHT22;55322;48.146;11.516;2023-07-31T00:52:35;15.56;81.74
68378;DHT22;55322;48.146;11.516;2023-07-31T00:55:01;15.51;81.39
68378;DHT22;55322;48.146;11.516;2023-07-31T00:57:27;15.45;83.02
68378;DHT22;55322;48.146;11.516;2023-07-31T00:59:52;15.42;82.94
68378;DHT22;55322;48.146;11.516;2023-07-31T01:02:17;15.42;82.30
68378;DHT22;55322;48.146;11.516;2023-07-31T01:04:43;15.45;81.26
68378;DHT22;55322;48.146;11.516;2023-07-31T01:07:26;15.49;81.34
68378;DHT22;55322;48.146;11.516;2023-07-31T01:10:08;15.54;81.51
68378;DHT22;55322;48.146;11.516;2023-07-31T01:12:37;15.59;79.51
68378;DHT22;55322;48.146;11.516;2023-07-31T01:15:07;15.55;80.48
68378;DHT22;55322;48.146;11.516;2023-07-31T01:17:36;15.55;80.08
68378;DHT22;55322;48.146;11.516;2023-07-31T01:20:04;15.55;80.99
68378;DHT22;55322;48.146;11.516;2023-07-31T01:25:15;15.54;82.83
68378;DHT22;55322;48.146;11.516;2023-07-31T01:27:53;15.58;83.44
68378;DHT22;55322;48.146;11.516;2023-07-31T01:30:25;15.65;82.93
68378;DHT22;55322;48.146;11.516;2023-07-31T01:32:53;15.62;81.20
68378;DHT22;55322;48.146;11.516;2023-07-31T01:35:19;15.68;80.45
68378;DHT22;55322;48.146;11.516;2023-07-31T01:37:45;15.70;81.54
68378;DHT22;55322;48.146;11.516;2023-07-31T01:40:11;15.73;79.29
68378;DHT22;55322;48.146;11.516;2023-07-31T01:42:36;15.76;80.66
68378;DHT22;55322;48.146;11.516;2023-07-31T01:45:01;15.82;79.37
68378;DHT22;55322;48.146;11.516;2023-07-31T01:47:27;15.85;79.65
68378;DHT22;55322;48.146;11.516;2023-07-31T01:49:52;15.83;79.85
68378;DHT22;55322;48.146;11.516;2023-07-31T01:52:17;15.86;80.34
68378;DHT22;55322;48.146;11.516;2023-07-31T01:54:43;15.86;79.80
68378;DHT22;55322;48.146;11.516;2023-07-31T01:57:08;15.92;80.38
68378;DHT22;55322;48.146;11.516;2023-07-31T01:59:33;15.92;80.24
68378;DHT22;55322;48.146;11.516;2023-07-31T02:01:58;15.90;79.99
68378;DHT22;55322;48.146;11.516;2023-07-31T02:04:24;15.98;80.51
68378;DHT22;55322;48.146;11.516;2023-07-31T02:06:49;15.95;80.42
68378;DHT22;55322;48.146;11.516;2023-07-31T02:09:14;15.98;80.86
68378;DHT22;55322;48.146;11.516;2023-07-31T02:11:40;15.95;80.75
68378;DHT22;55322;48.146;11.516;2023-07-31T02:14:05;16.00;78.33
68378;DHT22;55322;48.146;11.516;2023-07-31T02:16:30;15.99;78.92
68378;DHT22;55322;48.146;11.516;2023-07-31T02:18:56;16.05;79.11
68378;DHT22;55322;48.146;11.516;2023-07-31T02:21:21;16.08;77.83
68378;DHT22;55322;48.146;11.516;2023-07-31T02:23:47;16.08;79.46
68378;DHT22;55322;48.146;11.516;2023-07-31T02:26:12;16.09;79.52
68378;DHT22;55322;48.146;11.516;2023-07-31T02:28:37;16.08;80.13
68378;DHT22;55322;48.146;11.516;2023-07-31T02:31:03;16.09;79.77
68378;DHT22;55322;48.146;11.516;2023-07-31T02:33:28;16.09;79.45
68378;DHT22;55322;48.146;11.516;2023-07-31T02:35:53;16.08;79.66
68378;DHT22;55322;48.146;11.516;2023-07-31T02:38:19;16.12;78.22
68378;DHT22;55322;48.146;11.516;2023-07-31T02:40:44;16.05;77.96
68378;DHT22;55322;48.146;11.516;2023-07-31T02:43:09;16.06;79.21
68378;DHT22;55322;48.146;11.516;2023-07-31T02:45:35;16.05;80.69
68378;DHT22;55322;48.146;11.516;2023-07-31T02:48:00;15.99;80.72
68378;DHT22;55322;48.146;11.516;2023-07-31T02:50:26;15.95;81.08
68378;DHT22;55322;48.146;11.516;2023-07-31T02:52:52;15.88;81.71
68378;DHT22;55322;48.146;11.516;2023-07-31T02:55:18;15.79;81.63
68378;DHT22;55322;48.146;11.516;2023-07-31T02:57:43;15.72;81.91
68378;DHT22;55322;48.146;11.516;2023-07-31T03:00:08;15.61;82.43
68378;DHT22;55322;48.146;11.516;2023-07-31T03:02:34;15.49;82.75
68378;DHT22;55322;48.146;11.516;2023-07-31T03:05:00;15.41;82.69
68378;DHT22;55322;48.146;11.516;2023-07-31T03:07:25;15.35;83.48
68378;DHT22;55322;48.146;11.516;2023-07-31T03:09:51;15.30;83.64
68378;DHT22;55322;48.146;11.516;2023-07-31T03:12:16;15.27;83.55
68378;DHT22;55322;48.146;11.516;2023-07-31T03:14:41;15.24;83.93
68378;DHT22;55322;48.146;11.516;2023-07-31T03:17:07;15.20;85.59
68378;DHT22;55322;48.146;11.516;2023-07-31T03:19:32;15.12;85.29
68378;DHT22;55322;48.146;11.516;2023-07-31T03:21:59;15.10;85.71
68378;DHT22;55322;48.146;11.516;2023-07-31T03:24:24;15.04;85.39
68378;DHT22;55322;48.146;11.516;2023-07-31T03:26:50;15.04;85.75
68378;DHT22;55322;48.146;11.516;2023-07-31T03:29:15;15.03;85.93
68378;DHT22;55322;48.146;11.516;2023-07-31T03:31:40;14.93;86.14
68378;DHT22;55322;48.146;11.516;2023-07-31T03:34:06;14.94;86.23
68378;DHT22;55322;48.146;11.516;2023-07-31T03:36:31;14.95;85.70
68378;DHT22;55322;48.146;11.516;2023-07-31T03:38:57;15.03;84.58
68378;DHT22;55322;48.146;11.516;2023-07-31T03:41:22;15.08;85.67
68378;DHT22;55322;48.146;11.516;2023-07-31T03:43:50;15.12;85.44
68378;DHT22;55322;48.146;11.516;2023-07-31T03:46:17;15.18;85.22
68378;DHT22;55322;48.146;11.516;2023-07-31T03:48:42;15.20;85.56
68378;DHT22;55322;48.146;11.516;2023-07-31T03:51:08;15.24;86.22
68378;DHT22;55322;48.146;11.516;2023-07-31T03:53:33;15.23;86.17
68378;DHT22;55322;48.146;11.516;2023-07-31T03:55:58;15.21;86.13
68378;DHT22;55322;48.146;11.516;2023-07-31T03:58:23;15.18;85.24
68378;DHT22;55322;48.146;11.516;2023-07-31T04:00:49;15.23;85.54
68378;DHT22;55322;48.146;11.516;2023-07-31T04:03:14;15.20;85.63
68378;DHT22;55322;48.146;11.516;2023-07-31T04:05:39;15.24;85.79
68378;DHT22;55322;48.146;11.516;2023-07-31T04:08:05;15.24;84.77
68378;DHT22;55322;48.146;11.516;2023-07-31T04:10:30;15.30;84.52
68378;DHT22;55322;48.146;11.516;2023-07-31T04:12:58;15.32;84.16
68378;DHT22;55322;48.146;11.516;2023-07-31T04:15:23;15.36;85.21
68378;DHT22;55322;48.146;11.516;2023-07-31T04:17:49;15.36;84.56
68378;DHT22;55322;48.146;11.516;2023-07-31T04:20:14;15.38;84.74
68378;DHT22;55322;48.146;11.516;2023-07-31T04:22:39;15.41;84.02
68378;DHT22;55322;48.146;11.516;2023-07-31T04:25:05;15.42;83.48
68378;DHT22;55322;48.146;11.516;2023-07-31T04:27:30;15.41;83.85
68378;DHT22;55322;48.146;11.516;2023-07-31T04:29:56;15.39;83.92
68378;DHT22;55322;48.146;11.516;2023-07-31T04:32:21;15.38;84.35
68378;DHT22;55322;48.146;11.516;2023-07-31T04:34:46;15.36;84.53
68378;DHT22;55322;48.146;11.516;2023-07-31T04:37:12;15.36;85.14
68378;DHT22;55322;48.146;11.516;2023-07-31T04:39:37;15.31;85.33
68378;DHT22;55322;48.146;11.516;2023-07-31T04:42:02;15.30;85.89
68378;DHT22;55322;48.146;11.516;2023-07-31T04:44:28;15.25;86.20
68378;DHT22;55322;48.146;11.516;2023-07-31T04:46:53;15.21;85.55
68378;DHT22;55322;48.146;11.516;2023-07-31T04:49:19;15.23;86.32
68378;DHT22;55322;48.146;11.516;2023-07-31T04:51:44;15.25;86.40
68378;DHT22;55322;48.146;11.516;2023-07-31T04:54:09;15.25;86.08
68378;DHT22;55322;48.146;11.516;2023-07-31T04:56:35;15.28;85.87
68378;DHT22;55322;48.146;11.516;2023-07-31T04:59:01;15.31;85.45
68378;DHT22;55322;48.146;11.516;2023-07-31T05:01:26;15.39;84.99
68378;DHT22;55322;48.146;11.516;2023-07-31T05:03:51;15.42;85.85
68378;DHT22;55322;48.146;11.516;2023-07-31T05:06:17;15.46;85.98
68378;DHT22;55322;48.146;11.516;2023-07-31T05:08:42;15.48;86.31
68378;DHT22;55322;48.146;11.516;2023-07-31T05:11:07;15.55;85.36
68378;DHT22;55322;48.146;11.516;2023-07-31T05:13:33;15.63;85.73
68378;DHT22;55322;48.146;11.516;2023-07-31T05:15:58;15.75;85.90
68378;DHT22;55322;48.146;11.516;2023-07-31T05:18:23;16.23;83.70
68378;DHT22;55322;48.146;11.516;2023-07-31T05:20:49;16.61;81.95
68378;DHT22;55322;48.146;11.516;2023-07-31T05:23:14;16.60;83.32
68378;DHT22;55322;48.146;11.516;2023-07-31T05:25:39;16.67;82.08
68378;DHT22;55322;48.146;11.516;2023-07-31T05:28:05;16.70;81.92
68378;DHT22;55322;48.146;11.516;2023-07-31T05:30:30;17.04;81.12
68378;DHT22;55322;48.146;11.516;2023-07-31T05:32:56;17.22;80.46
68378;DHT22;55322;48.146;11.516;2023-07-31T05:35:21;18.07;76.98
68378;DHT22;55322;48.146;11.516;2023-07-31T05:37:47;17.96;76.89
68378;DHT22;55322;48.146;11.516;2023-07-31T05:40:12;17.87;77.92
68378;DHT22;55322;48.146;11.516;2023-07-31T05:42:37;17.94;75.12
68378;DHT22;55322;48.146;11.516;2023-07-31T05:45:05;18.01;75.03
68378;DHT22;55322;48.146;11.516;2023-07-31T05:47:30;18.27;74.11
68378;DHT22;55322;48.146;11.516;2023-07-31T05:49:56;18.06;76.69
68378;DHT22;55322;48.146;11.516;2023-07-31T05:52:21;17.91;77.27
68378;DHT22;55322;48.146;11.516;2023-07-31T05:54:46;17.85;75.94
68378;DHT22;55322;48.146;11.516;2023-07-31T05:57:12;17.89;77.88
68378;DHT22;55322;48.146;11.516;2023-07-31T05:59:37;17.91;77.36
68378;DHT22;55322;48.146;11.516;2023-07-31T06:02:02;18.10;77.14
68378;DHT22;55322;48.146;11.516;2023-07-31T06:04:28;18.29;75.72
68378;DHT22;55322;48.146;11.516;2023-07-31T06:06:53;18.76;73.35
68378;DHT22;55322;48.146;11.516;2023-07-31T06:09:19;19.25;72.64
68378;DHT22;55322;48.146;11.516;2023-07-31T06:11:45;20.37;69.81
68378;DHT22;55322;48.146;11.516;2023-07-31T06:14:10;20.78;66.67
68378;DHT22;55322;48.146;11.516;2023-07-31T06:16:36;21.05;66.44
68378;DHT22;55322;48.146;11.516;2023-07-31T06:19:01;20.75;66.79
68378;DHT22;55322;48.146;11.516;2023-07-31T06:21:27;20.59;68.20
68378;DHT22;55322;48.146;11.516;2023-07-31T06:23:52;20.37;68.00
68378;DHT22;55322;48.146;11.516;2023-07-31T06:26:17;20.24;69.92
68378;DHT22;55322;48.146;11.516;2023-07-31T06:28:43;20.04;67.82
68378;DHT22;55322;48.146;11.516;2023-07-31T06:31:08;19.69;69.09
68378;DHT22;55322;48.146;11.516;2023-07-31T06:33:33;19.38;69.07
68378;DHT22;55322;48.146;11.516;2023-07-31T06:35:59;19.09;71.08
68378;DHT22;55322;48.146;11.516;2023-07-31T06:38:25;18.87;72.04
68378;DHT22;55322;48.146;11.516;2023-07-31T06:40:51;18.76;71.73
68378;DHT22;55322;48.146;11.516;2023-07-31T06:43:16;18.79;71.59
68378;DHT22;55322;48.146;11.516;2023-07-31T06:45:42;18.99;72.36
68378;DHT22;55322;48.146;11.516;2023-07-31T06:48:07;19.33;70.95
68378;DHT22;55322;48.146;11.516;2023-07-31T06:50:32;19.30;69.67
68378;DHT22;55322;48.146;11.516;2023-07-31T06:52:58;19.43;71.69
68378;DHT22;55322;48.146;11.516;2023-07-31T06:55:24;19.79;70.16
68378;DHT22;55322;48.146;11.516;2023-07-31T06:57:51;19.76;70.43
68378;DHT22;55322;48.146;11.516;2023-07-31T07:00:17;19.62;67.20
68378;DHT22;55322;48.146;11.516;2023-07-31T07:02:43;19.45;70.70
68378;DHT22;55322;48.146;11.516;2023-07-31T07:05:08;19.25;70.26
68378;DHT22;55322;48.146;11.516;2023-07-31T07:07:34;19.12;70.35
68378;DHT22;55322;48.146;11.516;2023-07-31T07:10:00;19.08;71.42
68378;DHT22;55322;48.146;11.516;2023-07-31T07:12:27;18.98;71.18
68378;DHT22;55322;48.146;11.516;2023-07-31T07:14:52;18.96;69.27
68378;DHT22;55322;48.146;11.516;2023-07-31T07:17:18;18.94;69.34
68378;DHT22;55322;48.146;11.516;2023-07-31T07:19:44;18.99;71.63
68378;DHT22;55322;48.146;11.516;2023-07-31T07:22:11;19.15;71.09
68378;DHT22;55322;48.146;11.516;2023-07-31T07:24:36;19.40;70.10
68378;DHT22;55322;48.146;11.516;2023-07-31T07:27:01;19.53;69.28
68378;DHT22;55322;48.146;11.516;2023-07-31T07:29:26;19.58;69.11
68378;DHT22;55322;48.146;11.516;2023-07-31T07:31:52;19.55;70.31
68378;DHT22;55322;48.146;11.516;2023-07-31T07:34:17;19.52;70.48
68378;DHT22;55322;48.146;11.516;2023-07-31T07:36:42;19.66;69.99
68378;DHT22;55322;48.146;11.516;2023-07-31T07:39:10;19.84;67.98
68378;DHT22;55322;48.146;11.516;2023-07-31T07:41:35;20.20;69.39
68378;DHT22;55322;48.146;11.516;2023-07-31T07:44:00;20.28;69.20
68378;DHT22;55322;48.146;11.516;2023-07-31T07:46:26;20.40;68.96
68378;DHT22;55322;48.146;11.516;2023-07-31T07:48:51;20.38;67.35
68378;DHT22;55322;48.146;11.516;2023-07-31T07:51:16;20.31;67.30
68378;DHT22;55322;48.146;11.516;2023-07-31T07:53:42;20.24;68.40
68378;DHT22;55322;48.146;11.516;2023-07-31T07:56:07;20.16;70.14
68378;DHT22;55322;48.146;11.516;2023-07-31T07:58:32;19.96;69.50
68378;DHT22;55322;48.146;11.516;2023-07-31T08:00:58;20.03;69.82
68378;DHT22;55322;48.146;11.516;2023-07-31T08:03:23;20.13;67.81
68378;DHT22;55322;48.146;11.516;2023-07-31T08:05:48;20.17;66.94
68378;DHT22;55322;48.146;11.516;2023-07-31T08:08:15;20.25;67.97
68378;DHT22;55322;48.146;11.516;2023-07-31T08:10:41;20.30;65.87
68378;DHT22;55322;48.146;11.516;2023-07-31T08:13:07;20.38;66.07
68378;DHT22;55322;48.146;11.516;2023-07-31T08:15:32;20.74;65.45
68378;DHT22;55322;48.146;11.516;2023-07-31T08:17:57;20.86;63.98
68378;DHT22;55322;48.146;11.516;2023-07-31T08:20:23;20.94;64.99
68378;DHT22;55322;48.146;11.516;2023-07-31T08:22:48;21.20;63.64
68378;DHT22;55322;48.146;11.516;2023-07-31T08:25:14;21.38;63.04
68378;DHT22;55322;48.146;11.516;2023-07-31T08:27:43;21.46;62.42
68378;DHT22;55322;48.146;11.516;2023-07-31T08:30:09;21.32;62.49
68378;DHT22;55322;48.146;11.516;2023-07-31T08:32:34;21.08;63.13
68378;DHT22;55322;48.146;11.516;2023-07-31T08:34:59;20.76;65.02
68378;DHT22;55322;48.146;11.516;2023-07-31T08:37:25;20.61;64.50
68378;DHT22;55322;48.146;11.516;2023-07-31T08:39:50;20.51;66.00
68378;DHT22;55322;48.146;11.516;2023-07-31T08:42:16;20.38;67.10
68378;DHT22;55322;48.146;11.516;2023-07-31T08:44:43;20.34;63.49
68378;DHT22;55322;48.146;11.516;2023-07-31T08:47:09;20.25;66.66
68378;DHT22;55322;48.146;11.516;2023-07-31T08:49:36;20.14;66.06
68378;DHT22;55322;48.146;11.516;2023-07-31T08:52:03;20.03;67.42
68378;DHT22;55322;48.146;11.516;2023-07-31T08:54:29;19.87;68.51
68378;DHT22;55322;48.146;11.516;2023-07-31T08:56:56;19.77;66.80
68378;DHT22;55322;48.146;11.516;2023-07-31T08:59:23;19.81;67.27
68378;DHT22;55322;48.146;11.516;2023-07-31T09:01:50;19.80;66.06
68378;DHT22;55322;48.146;11.516;2023-07-31T09:04:18;19.90;68.70
68378;DHT22;55322;48.146;11.516;2023-07-31T09:06:45;19.94;67.95
68378;DHT22;55322;48.146;11.516;2023-07-31T09:09:12;20.10;67.23
68378;DHT22;55322;48.146;11.516;2023-07-31T09:11:37;20.44;67.59
68378;DHT22;55322;48.146;11.516;2023-07-31T09:14:02;20.74;65.98
68378;DHT22;55322;48.146;11.516;2023-07-31T09:16:33;20.89;65.48
68378;DHT22;55322;48.146;11.516;2023-07-31T09:18:59;20.96;63.64
68378;DHT22;55322;48.146;11.516;2023-07-31T09:21:27;20.98;63.61
68378;DHT22;55322;48.146;11.516;2023-07-31T09:23:53;21.00;64.27
68378;DHT22;55322;48.146;11.516;2023-07-31T09:26:33;20.95;64.07
68378;DHT22;55322;48.146;11.516;2023-07-31T09:29:00;21.03;65.45
68378;DHT22;55322;48.146;11.516;2023-07-31T09:31:42;21.08;66.78
68378;DHT22;55322;48.146;11.516;2023-07-31T09:34:08;21.26;63.51
68378;DHT22;55322;48.146;11.516;2023-07-31T09:36:42;21.46;63.63
68378;DHT22;55322;48.146;11.516;2023-07-31T09:39:13;21.61;63.95
68378;DHT22;55322;48.146;11.516;2023-07-31T09:41:40;21.67;62.04
68378;DHT22;55322;48.146;11.516;2023-07-31T09:44:06;21.76;64.21
68378;DHT22;55322;48.146;11.516;2023-07-31T09:46:32;22.11;59.64
68378;DHT22;55322;48.146;11.516;2023-07-31T09:49:10;22.24;61.84
68378;DHT22;55322;48.146;11.516;2023-07-31T09:51:37;22.38;62.86
68378;DHT22;55322;48.146;11.516;2023-07-31T09:54:08;22.22;61.48
68378;DHT22;55322;48.146;11.516;2023-07-31T09:56:34;21.76;61.32
68378;DHT22;55322;48.146;11.516;2023-07-31T09:59:00;21.47;62.17
68378;DHT22;55322;48.146;11.516;2023-07-31T10:01:26;21.46;62.23
68378;DHT22;55322;48.146;11.516;2023-07-31T10:03:52;21.66;62.14
68378;DHT22;55322;48.146;11.516;2023-07-31T10:06:17;21.71;63.52
68378;DHT22;55322;48.146;11.516;2023-07-31T10:08:47;22.17;63.68
68378;DHT22;55322;48.146;11.516;2023-07-31T10:11:15;22.44;61.76
68378;DHT22;55322;48.146;11.516;2023-07-31T10:13:41;22.73;63.28
68378;DHT22;55322;48.146;11.516;2023-07-31T10:16:07;23.00;58.28
68378;DHT22;55322;48.146;11.516;2023-07-31T10:18:33;23.43;60.45
68378;DHT22;55322;48.146;11.516;2023-07-31T10:21:00;23.23;55.26
68378;DHT22;55322;48.146;11.516;2023-07-31T10:23:25;23.24;60.88
68378;DHT22;55322;48.146;11.516;2023-07-31T10:25:53;23.39;58.54
68378;DHT22;55322;48.146;11.516;2023-07-31T10:28:20;23.46;57.53
68378;DHT22;55322;48.146;11.516;2023-07-31T10:30:46;23.63;54.48
68378;DHT22;55322;48.146;11.516;2023-07-31T10:33:11;23.45;55.32
68378;DHT22;55322;48.146;11.516;2023-07-31T10:35:36;23.36;58.38
68378;DHT22;55322;48.146;11.516;2023-07-31T10:38:10;23.33;54.89
68378;DHT22;55322;48.146;11.516;2023-07-31T10:40:37;23.33;59.84
68378;DHT22;55322;48.146;11.516;2023-07-31T10:43:02;23.05;56.74
68378;DHT22;55322;48.146;11.516;2023-07-31T10:45:39;22.73;58.78
68378;DHT22;55322;48.146;11.516;2023-07-31T10:48:06;22.68;57.69
68378;DHT22;55322;48.146;11.516;2023-07-31T10:50:37;22.34;58.75
68378;DHT22;55322;48.146;11.516;2023-07-31T10:53:02;22.21;59.50
68378;DHT22;55322;48.146;11.516;2023-07-31T10:55:35;22.18;59.42
68378;DHT22;55322;48.146;11.516;2023-07-31T10:58:12;22.31;57.47
68378;DHT22;55322;48.146;11.516;2023-07-31T11:00:39;22.51;57.42
68378;DHT22;55322;48.146;11.516;2023-07-31T11:03:06;22.68;56.30
68378;DHT22;55322;48.146;11.516;2023-07-31T11:08:31;22.85;56.75
68378;DHT22;55322;48.146;11.516;2023-07-31T11:13:33;22.99;55.26
68378;DHT22;55322;48.146;11.516;2023-07-31T11:15:59;22.76;58.78
68378;DHT22;55322;48.146;11.516;2023-07-31T11:18:26;22.66;57.78
68378;DHT22;55322;48.146;11.516;2023-07-31T11:20:53;22.64;58.63
68378;DHT22;55322;48.146;11.516;2023-07-31T11:23:19;22.81;58.00
68378;DHT22;55322;48.146;11.516;2023-07-31T11:25:45;22.98;59.46
68378;DHT22;55322;48.146;11.516;2023-07-31T11:28:12;22.94;56.28
68378;DHT22;55322;48.146;11.516;2023-07-31T11:30:40;23.05;56.54
68378;DHT22;55322;48.146;11.516;2023-07-31T11:33:11;23.06;55.27
68378;DHT22;55322;48.146;11.516;2023-07-31T11:38:10;22.81;58.57
68378;DHT22;55322;48.146;11.516;2023-07-31T11:40:42;22.78;54.85
68378;DHT22;55322;48.146;11.516;2023-07-31T11:43:08;23.16;56.79
68378;DHT22;55322;48.146;11.516;2023-07-31T11:45:33;23.39;54.67
68378;DHT22;55322;48.146;11.516;2023-07-31T11:48:00;23.37;51.35
68378;DHT22;55322;48.146;11.516;2023-07-31T11:50:26;23.43;55.52
68378;DHT22;55322;48.146;11.516;2023-07-31T11:52:58;23.46;57.23
68378;DHT22;55322;48.146;11.516;2023-07-31T11:55:24;23.60;56.05
68378;DHT22;55322;48.146;11.516;2023-07-31T11:57:51;23.63;52.87
68378;DHT22;55322;48.146;11.516;2023-07-31T12:00:18;23.87;55.19
68378;DHT22;55322;48.146;11.516;2023-07-31T12:02:44;24.24;54.84
68378;DHT22;55322;48.146;11.516;2023-07-31T12:05:11;24.52;53.05
68378;DHT22;55322;48.146;11.516;2023-07-31T12:07:49;24.54;51.65
68378;DHT22;55322;48.146;11.516;2023-07-31T12:10:29;24.51;53.01
68378;DHT22;55322;48.146;11.516;2023-07-31T12:13:04;24.44;49.96
68378;DHT22;55322;48.146;11.516;2023-07-31T12:17:58;24.59;52.35
68378;DHT22;55322;48.146;11.516;2023-07-31T12:20:23;24.18;52.37
68378;DHT22;55322;48.146;11.516;2023-07-31T12:22:49;24.10;53.19
68378;DHT22;55322;48.146;11.516;2023-07-31T12:25:17;24.10;54.41
68378;DHT22;55322;48.146;11.516;2023-07-31T12:27:46;24.39;52.33
68378;DHT22;55322;48.146;11.516;2023-07-31T12:30:32;24.22;53.71
68378;DHT22;55322;48.146;11.516;2023-07-31T12:32:58;24.17;50.57
68378;DHT22;55322;48.146;11.516;2023-07-31T12:35:34;23.98;51.83
68378;DHT22;55322;48.146;11.516;2023-07-31T12:38:01;23.75;50.86
68378;DHT22;55322;48.146;11.516;2023-07-31T12:40:27;23.84;55.58
68378;DHT22;55322;48.146;11.516;2023-07-31T12:42:52;24.08;56.23
68378;DHT22;55322;48.146;11.516;2023-07-31T12:45:17;24.51;51.86
68378;DHT22;55322;48.146;11.516;2023-07-31T12:47:43;24.77;53.06
68378;DHT22;55322;48.146;11.516;2023-07-31T12:50:08;24.76;52.28
68378;DHT22;55322;48.146;11.516;2023-07-31T12:52:34;24.89;51.03
68378;DHT22;55322;48.146;11.516;2023-07-31T12:54:59;24.52;50.78
68378;DHT22;55322;48.146;11.516;2023-07-31T12:57:24;24.17;54.15
68378;DHT22;55322;48.146;11.516;2023-07-31T12:59:50;24.01;54.53
68378;DHT22;55322;48.146;11.516;2023-07-31T13:02:15;24.17;51.57
68378;DHT22;55322;48.146;11.516;2023-07-31T13:04:40;24.25;52.78
68378;DHT22;55322;48.146;11.516;2023-07-31T13:07:06;24.56;53.65
68378;DHT22;55322;48.146;11.516;2023-07-31T13:09:31;25.02;51.55
68378;DHT22;55322;48.146;11.516;2023-07-31T13:11:56;25.12;52.64
68378;DHT22;55322;48.146;11.516;2023-07-31T13:14:21;24.97;51.73
68378;DHT22;55322;48.146;11.516;2023-07-31T13:16:47;24.52;50.08
68378;DHT22;55322;48.146;11.516;2023-07-31T13:19:12;24.52;53.83
68378;DHT22;55322;48.146;11.516;2023-07-31T13:21:37;24.45;52.45
68378;DHT22;55322;48.146;11.516;2023-07-31T13:24:03;24.47;51.90
68378;DHT22;55322;48.146;11.516;2023-07-31T13:26:29;24.48;47.41
68378;DHT22;55322;48.146;11.516;2023-07-31T13:28:55;24.72;47.56
68378;DHT22;55322;48.146;11.516;2023-07-31T13:31:20;24.90;47.83
68378;DHT22;55322;48.146;11.516;2023-07-31T13:33:45;25.00;50.97
68378;DHT22;55322;48.146;11.516;2023-07-31T13:36:10;25.10;48.16
68378;DHT22;55322;48.146;11.516;2023-07-31T13:38:39;25.26;47.05
68378;DHT22;55322;48.146;11.516;2023-07-31T13:41:04;25.31;50.23
68378;DHT22;55322;48.146;11.516;2023-07-31T13:43:30;25.27;49.93
68378;DHT22;55322;48.146;11.516;2023-07-31T13:45:55;25.54;51.63
68378;DHT22;55322;48.146;11.516;2023-07-31T13:48:21;25.67;49.89
68378;DHT22;55322;48.146;11.516;2023-07-31T13:50:46;25.60;50.84
68378;DHT22;55322;48.146;11.516;2023-07-31T13:53:14;25.54;49.97
68378;DHT22;55322;48.146;11.516;2023-07-31T13:55:39;25.30;50.24
68378;DHT22;55322;48.146;11.516;2023-07-31T13:58:04;24.90;52.60
68378;DHT22;55322;48.146;11.516;2023-07-31T14:00:30;24.51;51.43
68378;DHT22;55322;48.146;11.516;2023-07-31T14:02:55;24.48;51.07
68378;DHT22;55322;48.146;11.516;2023-07-31T14:05:20;24.44;50.24
68378;DHT22;55322;48.146;11.516;2023-07-31T14:07:46;24.42;50.78
68378;DHT22;55322;48.146;11.516;2023-07-31T14:10:11;24.39;50.20
68378;DHT22;55322;48.146;11.516;2023-07-31T14:12:37;24.51;50.11
68378;DHT22;55322;48.146;11.516;2023-07-31T14:15:02;24.54;51.65
68378;DHT22;55322;48.146;11.516;2023-07-31T14:17:28;24.55;51.27
68378;DHT22;55322;48.146;11.516;2023-07-31T14:19:53;24.38;47.89
68378;DHT22;55322;48.146;11.516;2023-07-31T14:22:31;24.15;52.41
68378;DHT22;55322;48.146;11.516;2023-07-31T14:24:58;23.97;54.17
68378;DHT22;55322;48.146;11.516;2023-07-31T14:27:23;23.81;56.38
68378;DHT22;55322;48.146;11.516;2023-07-31T14:29:49;23.80;54.81
68378;DHT22;55322;48.146;11.516;2023-07-31T14:32:14;24.10;52.87
68378;DHT22;55322;48.146;11.516;2023-07-31T14:34:40;24.17;51.29
68378;DHT22;55322;48.146;11.516;2023-07-31T14:37:05;24.35;50.84
68378;DHT22;55322;48.146;11.516;2023-07-31T14:39:30;24.22;53.10
68378;DHT22;55322;48.146;11.516;2023-07-31T14:41:56;24.00;50.65
68378;DHT22;55322;48.146;11.516;2023-07-31T14:44:21;23.93;52.49
68378;DHT22;55322;48.146;11.516;2023-07-31T14:46:47;23.70;53.66
68378;DHT22;55322;48.146;11.516;2023-07-31T14:49:12;23.83;53.97
68378;DHT22;55322;48.146;11.516;2023-07-31T14:51:37;23.93;53.07
68378;DHT22;55322;48.146;11.516;2023-07-31T14:54:03;23.85;54.52
68378;DHT22;55322;48.146;11.516;2023-07-31T14:56:28;23.71;54.97
68378;DHT22;55322;48.146;11.516;2023-07-31T14:58:53;23.63;54.57
68378;DHT22;55322;48.146;11.516;2023-07-31T15:01:20;23.51;54.69
68378;DHT22;55322;48.146;11.516;2023-07-31T15:03:45;23.36;51.99
68378;DHT22;55322;48.146;11.516;2023-07-31T15:06:11;23.42;53.76
68378;DHT22;55322;48.146;11.516;2023-07-31T15:08:38;23.39;54.48
68378;DHT22;55322;48.146;11.516;2023-07-31T15:11:03;23.23;54.55
68378;DHT22;55322;48.146;11.516;2023-07-31T15:13:28;23.20;55.19
68378;DHT22;55322;48.146;11.516;2023-07-31T15:15:54;23.09;56.87
68378;DHT22;55322;48.146;11.516;2023-07-31T15:18:21;23.06;56.31
68378;DHT22;55322;48.146;11.516;2023-07-31T15:20:46;23.12;58.30
68378;DHT22;55322;48.146;11.516;2023-07-31T15:23:12;23.07;55.85